createdAt,value
2022-09-04T00:01:01.471Z,18.70
2022-09-04T00:03:50.178Z,18.70
2022-09-04T00:06:23.701Z,18.70
2022-09-04T00:08:59.450Z,18.60
2022-09-04T00:11:38.269Z,18.60
2022-09-04T00:14:14.745Z,18.60
2022-09-04T00:17:01.911Z,18.60
2022-09-04T00:19:43.192Z,18.60
2022-09-04T00:22:39.074Z,18.50
2022-09-04T00:25:33.477Z,18.40
2022-09-04T00:28:17.700Z,18.30
2022-09-04T00:31:02.072Z,18.20
2022-09-04T00:34:07.154Z,18.20
2022-09-04T00:36:38.121Z,18.10
2022-09-04T00:39:17.398Z,18.20
2022-09-04T00:42:02.571Z,18.10
2022-09-04T00:44:58.727Z,18.00
2022-09-04T00:47:48.624Z,17.90
2022-09-04T00:50:43.036Z,17.80
2022-09-04T00:53:41.824Z,17.80
2022-09-04T00:56:39.967Z,17.80
2022-09-04T00:59:38.822Z,17.70
2022-09-04T01:02:40.745Z,17.60
2022-09-04T01:05:45.502Z,17.60
2022-09-04T01:08:20.220Z,17.60
2022-09-04T01:10:46.851Z,17.50
2022-09-04T01:13:24.974Z,17.40
2022-09-04T01:16:00.552Z,17.50
2022-09-04T01:18:56.282Z,17.40
2022-09-04T01:21:35.165Z,17.40
2022-09-04T01:24:36.616Z,17.30
2022-09-04T01:27:13.475Z,17.30
2022-09-04T01:29:52.920Z,17.20
2022-09-04T01:32:51.111Z,17.20
2022-09-04T01:35:41.888Z,17.10
2022-09-04T01:38:23.749Z,17.10
2022-09-04T01:41:23.784Z,17.10
2022-09-04T01:43:51.752Z,17.20
2022-09-04T01:46:18.905Z,17.20
2022-09-04T01:49:14.078Z,17.20
2022-09-04T01:52:00.120Z,17.20
2022-09-04T01:54:47.581Z,17.20
2022-09-04T01:57:35.797Z,17.20
2022-09-04T02:00:08.740Z,17.10
2022-09-04T02:03:19.299Z,17.10
2022-09-04T02:06:01.644Z,17.10
2022-09-04T02:08:59.636Z,17.20
2022-09-04T02:11:29.748Z,17.20
2022-09-04T02:14:19.635Z,17.20
2022-09-04T02:16:46.687Z,17.20
2022-09-04T02:19:31.508Z,17.20
2022-09-04T02:22:24.819Z,17.20
2022-09-04T02:24:57.343Z,17.20
2022-09-04T02:27:52.083Z,17.10
2022-09-04T02:30:21.423Z,17.20
2022-09-04T02:33:15.996Z,17.10
2022-09-04T02:35:49.764Z,17.10
2022-09-04T02:38:41.917Z,17.00
2022-09-04T02:41:30.355Z,17.00
2022-09-04T02:44:17.760Z,17.00
2022-09-04T02:46:44.310Z,16.90
2022-09-04T02:49:34.937Z,16.90
2022-09-04T02:52:33.394Z,16.90
2022-09-04T02:55:15.152Z,16.80
2022-09-04T02:57:56.538Z,16.70
2022-09-04T03:00:43.157Z,16.70
2022-09-04T03:03:21.171Z,16.70
2022-09-04T03:05:59.040Z,16.70
2022-09-04T03:08:36.469Z,16.60
2022-09-04T03:11:15.436Z,16.60
2022-09-04T03:13:59.245Z,16.60
2022-09-04T03:16:50.267Z,16.60
2022-09-04T03:19:36.688Z,16.50
2022-09-04T03:22:26.615Z,16.40
2022-09-04T03:25:20.651Z,16.30
2022-09-04T03:27:47.245Z,16.30
2022-09-04T03:30:15.381Z,16.20
2022-09-04T03:32:45.040Z,16.10
2022-09-04T03:35:26.147Z,16.10
2022-09-04T03:37:57.388Z,16.20
2022-09-04T03:41:06.273Z,16.20
2022-09-04T03:43:47.970Z,16.10
2022-09-04T03:46:34.170Z,16.00
2022-09-04T03:49:38.944Z,15.90
2022-09-04T03:52:39.313Z,15.90
2022-09-04T03:55:05.873Z,15.80
2022-09-04T03:58:05.117Z,15.70
2022-09-04T04:00:48.776Z,15.60
2022-09-04T04:03:38.863Z,15.60
2022-09-04T04:06:26.080Z,15.60
2022-09-04T04:09:19.864Z,15.60
2022-09-04T04:12:18.924Z,15.50
2022-09-04T04:14:57.024Z,15.40
2022-09-04T04:17:53.176Z,15.30
2022-09-04T04:21:01.444Z,15.30
2022-09-04T04:24:12.346Z,15.30
2022-09-04T04:27:05.387Z,15.30
2022-09-04T04:30:09.944Z,15.20
2022-09-04T04:32:48.856Z,15.10
2022-09-04T04:35:28.339Z,15.10
2022-09-04T04:38:05.544Z,15.10
2022-09-04T04:40:47.514Z,15.10
2022-09-04T04:43:33.474Z,15.10
2022-09-04T04:46:39.390Z,15.10
2022-09-04T04:49:09.095Z,15.20
2022-09-04T04:52:16.056Z,15.20
2022-09-04T04:55:05.216Z,15.20
2022-09-04T04:57:57.760Z,15.20
2022-09-04T05:00:39.113Z,15.30
2022-09-04T05:03:32.228Z,15.20
2022-09-04T05:06:22.187Z,15.30
2022-09-04T05:09:14.615Z,15.20
2022-09-04T05:11:48.810Z,15.30
2022-09-04T05:14:33.601Z,15.30
2022-09-04T05:17:21.780Z,15.30
2022-09-04T05:20:26.070Z,15.30
2022-09-04T05:23:21.988Z,15.30
2022-09-04T05:26:36.524Z,15.30
2022-09-04T05:29:33.935Z,15.30
2022-09-04T05:32:30.261Z,15.30
2022-09-04T05:35:04.487Z,15.40
2022-09-04T05:37:44.989Z,15.40
2022-09-04T05:40:30.725Z,15.40
2022-09-04T05:43:12.213Z,15.50
2022-09-04T05:45:55.768Z,15.50
2022-09-04T05:48:27.813Z,15.50
2022-09-04T05:51:01.808Z,15.60
2022-09-04T05:53:35.518Z,15.60
2022-09-04T05:56:25.289Z,15.70
2022-09-04T05:59:00.473Z,15.70
2022-09-04T06:01:59.616Z,15.80
2022-09-04T06:04:48.204Z,15.80
2022-09-04T06:07:31.733Z,15.90
2022-09-04T06:10:32.800Z,15.90
2022-09-04T06:13:36.972Z,15.90
2022-09-04T06:16:36.384Z,15.90
2022-09-04T06:19:47.346Z,16.00
2022-09-04T06:22:14.073Z,16.10
2022-09-04T06:24:43.634Z,16.10
2022-09-04T06:27:38.781Z,16.20
2022-09-04T06:30:17.806Z,16.30
2022-09-04T06:33:09.267Z,16.20
2022-09-04T06:36:08.488Z,16.30
2022-09-04T06:39:12.764Z,16.50
2022-09-04T06:41:45.151Z,16.50
2022-09-04T06:44:46.044Z,16.50
2022-09-04T06:47:40.394Z,16.70
2022-09-04T06:50:22.798Z,16.70
2022-09-04T06:52:52.085Z,16.90
2022-09-04T06:55:45.051Z,16.90
2022-09-04T06:58:29.502Z,17.00
2022-09-04T07:01:03.978Z,17.10
2022-09-04T07:03:44.872Z,17.30
2022-09-04T07:06:20.804Z,17.30
2022-09-04T07:09:09.572Z,17.50
2022-09-04T07:11:55.952Z,17.50
2022-09-04T07:14:38.568Z,17.50
2022-09-04T07:17:19.307Z,17.60
2022-09-04T07:20:28.588Z,17.70
2022-09-04T07:23:23.736Z,17.80
2022-09-04T07:26:05.047Z,17.90
2022-09-04T07:28:56.572Z,18.00
2022-09-04T07:31:44.246Z,18.10
2022-09-04T07:34:25.175Z,18.20
2022-09-04T07:36:55.236Z,18.30
2022-09-04T07:39:54.447Z,18.50
2022-09-04T07:42:31.135Z,18.50
2022-09-04T07:45:05.061Z,18.50
2022-09-04T07:47:40.428Z,18.70
2022-09-04T07:50:35.989Z,18.80
2022-09-04T07:53:26.040Z,18.70
2022-09-04T07:56:14.216Z,18.70
2022-09-04T07:58:46.552Z,18.90
2022-09-04T08:01:31.125Z,18.90
2022-09-04T08:04:38.170Z,19.00
2022-09-04T08:07:12.229Z,19.10
2022-09-04T08:10:12.711Z,19.20
2022-09-04T08:13:12.237Z,19.40
2022-09-04T08:16:00.722Z,19.50
2022-09-04T08:18:45.898Z,19.50
2022-09-04T08:21:22.928Z,19.50
2022-09-04T08:24:05.308Z,19.60
2022-09-04T08:26:49.585Z,19.80
2022-09-04T08:29:43.627Z,20.00
2022-09-04T08:32:18.696Z,20.20
2022-09-04T08:35:36.379Z,20.20
2022-09-04T08:38:47.976Z,20.30
2022-09-04T08:41:33.596Z,20.40
2022-09-04T08:44:19.809Z,20.60
2022-09-04T08:47:17.720Z,20.60
2022-09-04T08:50:23.696Z,20.70
2022-09-04T08:53:16.308Z,20.80
2022-09-04T08:56:21.548Z,20.80
2022-09-04T08:58:56.944Z,20.90
2022-09-04T09:01:57.928Z,20.90
2022-09-04T09:04:36.643Z,21.00
2022-09-04T09:07:24.644Z,21.20
2022-09-04T09:10:25.400Z,21.30
2022-09-04T09:13:29.852Z,21.30
2022-09-04T09:16:15.615Z,21.40
2022-09-04T09:19:00.521Z,21.60
2022-09-04T09:21:49.194Z,21.60
2022-09-04T09:24:40.528Z,21.60
2022-09-04T09:27:47.249Z,21.80
2022-09-04T09:30:21.115Z,22.00
2022-09-04T09:33:15.440Z,22.10
2022-09-04T09:36:16.061Z,22.20
2022-09-04T09:39:20.122Z,22.30
2022-09-04T09:42:01.276Z,22.40
2022-09-04T09:44:55.192Z,22.50
2022-09-04T09:47:34.608Z,22.60
2022-09-04T09:50:16.366Z,22.70
2022-09-04T09:52:51.949Z,22.70
2022-09-04T09:55:37.697Z,22.80
2022-09-04T09:58:26.027Z,22.90
2022-09-04T10:00:56.951Z,23.00
2022-09-04T10:03:56.779Z,23.10
2022-09-04T10:06:35.464Z,23.10
2022-09-04T10:09:15.977Z,23.20
2022-09-04T10:12:07.138Z,23.30
2022-09-04T10:14:45.108Z,23.40
2022-09-04T10:17:42.565Z,23.50
2022-09-04T10:20:46.120Z,23.60
2022-09-04T10:23:36.671Z,23.60
2022-09-04T10:26:35.803Z,23.70
2022-09-04T10:29:11.847Z,23.70
2022-09-04T10:31:44.505Z,23.80
2022-09-04T10:34:25.884Z,23.90
2022-09-04T10:37:08.631Z,24.10
2022-09-04T10:40:21.833Z,24.30
2022-09-04T10:43:34.292Z,24.30
2022-09-04T10:46:04.029Z,24.50
2022-09-04T10:48:54.220Z,24.70
2022-09-04T10:51:54.631Z,24.60
2022-09-04T10:54:30.813Z,24.70
2022-09-04T10:57:21.686Z,24.70
2022-09-04T11:00:18.702Z,24.80
2022-09-04T11:03:06.444Z,24.90
2022-09-04T11:06:04.248Z,25.00
2022-09-04T11:08:49.389Z,25.00
2022-09-04T11:11:25.856Z,24.90
2022-09-04T11:14:25.356Z,24.90
2022-09-04T11:17:13.250Z,24.90
2022-09-04T11:20:07.616Z,25.10
2022-09-04T11:22:59.161Z,25.20
2022-09-04T11:25:47.088Z,25.20
2022-09-04T11:28:44.179Z,25.20
2022-09-04T11:31:30.345Z,25.30
2022-09-04T11:34:15.683Z,25.30
2022-09-04T11:36:55.595Z,25.30
2022-09-04T11:39:52.761Z,25.50
2022-09-04T11:42:20.355Z,25.60
2022-09-04T11:45:02.032Z,25.60
2022-09-04T11:47:59.268Z,25.50
2022-09-04T11:50:37.777Z,25.40
2022-09-04T11:53:26.178Z,25.50
2022-09-04T11:56:20.504Z,25.80
2022-09-04T11:59:09.676Z,25.90
2022-09-04T12:02:15.623Z,25.90
2022-09-04T12:04:58.476Z,26.00
2022-09-04T12:07:43.322Z,26.00
2022-09-04T12:10:34.137Z,26.10
2022-09-04T12:13:15.003Z,26.20
2022-09-04T12:15:56.059Z,26.20
2022-09-04T12:18:57.244Z,26.40
2022-09-04T12:21:25.307Z,26.40
2022-09-04T12:24:26.321Z,26.60
2022-09-04T12:26:59.817Z,26.60
2022-09-04T12:30:03.075Z,26.50
2022-09-04T12:32:47.828Z,26.50
2022-09-04T12:35:46.899Z,26.50
2022-09-04T12:38:44.289Z,26.60
2022-09-04T12:41:26.036Z,26.70
2022-09-04T12:44:04.676Z,26.80
2022-09-04T12:47:13.939Z,26.90
2022-09-04T12:50:11.334Z,26.90
2022-09-04T12:52:49.503Z,27.00
2022-09-04T12:55:19.388Z,27.20
2022-09-04T12:57:46.620Z,27.40
2022-09-04T13:00:17.441Z,27.50
2022-09-04T13:03:10.479Z,27.40
2022-09-04T13:06:23.912Z,27.50
2022-09-04T13:09:06.408Z,27.40
2022-09-04T13:11:48.823Z,27.40
2022-09-04T13:14:40.605Z,27.40
2022-09-04T13:17:35.031Z,27.40
2022-09-04T13:20:20.728Z,27.60
2022-09-04T13:23:05.604Z,27.70
2022-09-04T13:25:48.200Z,27.70
2022-09-04T13:28:40.131Z,27.60
2022-09-04T13:31:15.611Z,27.60
2022-09-04T13:33:49.436Z,27.80
2022-09-04T13:36:35.157Z,28.00
2022-09-04T13:39:28.775Z,28.00
2022-09-04T13:42:13.351Z,28.00
2022-09-04T13:45:01.970Z,28.10
2022-09-04T13:47:39.063Z,28.40
2022-09-04T13:50:29.949Z,28.50
2022-09-04T13:53:23.475Z,28.40
2022-09-04T13:55:58.153Z,28.40
2022-09-04T13:58:38.411Z,28.30
2022-09-04T14:01:13.324Z,28.40
2022-09-04T14:03:51.574Z,28.50
2022-09-04T14:06:21.060Z,28.70
2022-09-04T14:08:55.637Z,28.70
2022-09-04T14:11:45.164Z,28.50
2022-09-04T14:14:14.880Z,28.60
2022-09-04T14:16:44.195Z,28.70
2022-09-04T14:19:33.819Z,28.70
2022-09-04T14:22:34.839Z,28.70
2022-09-04T14:25:15.974Z,28.80
2022-09-04T14:28:20.477Z,28.90
2022-09-04T14:31:13.986Z,29.00
2022-09-04T14:34:01.917Z,29.30
2022-09-04T14:36:45.771Z,29.40
2022-09-04T14:39:21.184Z,29.60
2022-09-04T14:42:05.248Z,29.60
2022-09-04T14:44:43.904Z,29.50
2022-09-04T14:47:31.762Z,29.40
2022-09-04T14:50:02.339Z,29.20
2022-09-04T14:52:36.625Z,29.20
2022-09-04T14:55:08.755Z,29.30
2022-09-04T14:57:50.477Z,29.30
2022-09-04T15:00:20.236Z,29.30
2022-09-04T15:03:08.666Z,29.20
2022-09-04T15:05:47.224Z,29.30
2022-09-04T15:08:34.646Z,29.60
2022-09-04T15:11:08.889Z,29.60
2022-09-04T15:13:53.629Z,29.70
2022-09-04T15:16:30.432Z,29.80
2022-09-04T15:19:05.369Z,29.70
2022-09-04T15:21:51.118Z,29.80
2022-09-04T15:24:26.541Z,29.90
2022-09-04T15:27:28.358Z,30.00
2022-09-04T15:29:59.369Z,30.00
2022-09-04T15:32:31.828Z,30.10
2022-09-04T15:35:14.579Z,30.20
2022-09-04T15:37:48.278Z,30.20
2022-09-04T15:40:28.325Z,30.00
2022-09-04T15:43:11.729Z,29.70
2022-09-04T15:45:53.379Z,29.70
2022-09-04T15:48:28.665Z,29.80
2022-09-04T15:51:20.382Z,29.90
2022-09-04T15:54:08.596Z,29.90
2022-09-04T15:56:45.320Z,29.90
2022-09-04T15:59:20.361Z,29.70
2022-09-04T16:01:50.587Z,29.80
2022-09-04T16:04:26.367Z,29.90
2022-09-04T16:07:19.579Z,30.10
2022-09-04T16:09:53.062Z,30.30
2022-09-04T16:12:33.125Z,30.20
2022-09-04T16:15:12.883Z,30.10
2022-09-04T16:17:45.756Z,30.00
2022-09-04T16:20:46.737Z,30.10
2022-09-04T16:23:17.011Z,30.20
2022-09-04T16:25:49.878Z,30.40
2022-09-04T16:28:31.470Z,30.50
2022-09-04T16:31:01.906Z,30.50
2022-09-04T16:33:39.235Z,30.90
2022-09-04T16:36:28.616Z,31.10
2022-09-04T16:39:05.437Z,31.10
2022-09-04T16:41:41.628Z,30.90
2022-09-04T16:44:25.652Z,31.00
2022-09-04T16:47:07.852Z,30.80
2022-09-04T16:49:52.545Z,30.60
2022-09-04T16:52:40.307Z,30.20
2022-09-04T16:55:11.329Z,30.30
2022-09-04T16:58:07.312Z,30.40
2022-09-04T17:00:53.368Z,30.40
2022-09-04T17:03:25.388Z,30.30
2022-09-04T17:05:58.422Z,30.30
2022-09-04T17:08:36.821Z,30.30
2022-09-04T17:11:32.912Z,30.20
2022-09-04T17:14:20.059Z,29.70
2022-09-04T17:16:57.643Z,29.10
2022-09-04T17:19:26.338Z,29.00
2022-09-04T17:29:03.745Z,29.40
2022-09-04T17:29:04.695Z,29.10
2022-09-04T17:29:11.933Z,29.60
2022-09-04T17:31:15.776Z,29.60
2022-09-04T17:39:47.756Z,29.80
2022-09-04T17:40:48.036Z,29.90
2022-09-04T17:40:56.730Z,29.90
2022-09-04T17:43:27.504Z,29.60
2022-09-04T17:46:29.294Z,29.50
2022-09-04T17:48:56.188Z,29.40
2022-09-04T17:51:26.420Z,29.00
2022-09-04T17:53:56.940Z,28.70
2022-09-04T17:56:31.088Z,28.60
2022-09-04T17:59:15.300Z,28.40
2022-09-04T18:01:53.264Z,28.10
2022-09-04T18:04:49.147Z,27.80
2022-09-04T18:08:09.851Z,27.80
2022-09-04T18:10:28.263Z,27.80
2022-09-04T18:13:36.903Z,27.60
2022-09-04T18:16:12.253Z,27.40
2022-09-04T18:18:55.783Z,27.40
2022-09-04T18:21:35.744Z,27.30
2022-09-04T18:24:06.619Z,27.20
2022-09-04T18:26:40.872Z,27.20
2022-09-04T18:31:02.510Z,27.00
2022-09-04T18:37:12.659Z,26.80
2022-09-04T18:37:18.215Z,26.60
2022-09-04T18:38:28.321Z,26.50
2022-09-04T18:43:18.210Z,26.30
2022-09-04T18:50:36.803Z,26.10
2022-09-04T18:50:38.686Z,26.20
2022-09-04T18:50:44.414Z,26.30
2022-09-04T18:53:20.870Z,26.10
2022-09-04T18:55:50.987Z,26.00
2022-09-04T18:58:35.176Z,26.00
2022-09-04T19:01:11.244Z,26.10
2022-09-04T19:03:47.610Z,26.00
2022-09-04T19:06:52.038Z,25.90
2022-09-04T19:09:23.484Z,25.80
2022-09-04T19:11:58.512Z,25.80
2022-09-04T19:14:33.021Z,25.60
2022-09-04T19:17:11.879Z,25.40
2022-09-04T19:19:46.656Z,25.30
2022-09-04T19:22:33.464Z,25.30
2022-09-04T19:25:06.492Z,25.20
2022-09-04T19:27:55.146Z,25.10
2022-09-04T19:30:25.102Z,25.10
2022-09-04T19:33:08.020Z,25.00
2022-09-04T19:35:44.168Z,24.80
2022-09-04T19:41:42.988Z,24.70
2022-09-04T19:46:08.500Z,24.60
2022-09-04T19:46:18.138Z,24.60
2022-09-04T19:47:28.830Z,24.70
2022-09-04T19:53:22.657Z,24.60
2022-09-04T19:53:36.584Z,24.60
2022-09-04T19:56:25.813Z,24.40
2022-09-04T19:59:05.931Z,24.30
2022-09-04T20:02:03.267Z,24.30
2022-09-04T20:04:47.943Z,24.20
2022-09-04T20:07:41.739Z,24.10
2022-09-04T20:10:22.817Z,23.90
2022-09-04T20:13:14.744Z,23.80
2022-09-04T20:15:50.815Z,23.70
2022-09-04T20:18:39.628Z,23.70
2022-09-04T20:21:07.158Z,23.60
2022-09-04T20:23:46.857Z,23.40
2022-09-04T20:26:32.108Z,23.40
2022-09-04T20:29:17.976Z,23.30
2022-09-04T20:31:53.772Z,23.30
2022-09-04T20:34:58.700Z,23.30
2022-09-04T20:37:41.087Z,23.30
2022-09-04T20:40:27.117Z,23.40
2022-09-04T20:43:02.962Z,23.30
2022-09-04T20:47:39.690Z,23.20
2022-09-04T20:52:52.242Z,23.10
2022-09-04T20:53:00.566Z,23.00
2022-09-04T20:55:02.859Z,22.90
2022-09-04T21:03:14.934Z,22.80
2022-09-04T21:03:19.028Z,22.40
2022-09-04T21:03:57.242Z,22.30
2022-09-04T21:06:30.014Z,22.20
2022-09-04T21:09:02.420Z,22.00
2022-09-04T21:11:39.092Z,22.00
2022-09-04T21:14:28.636Z,21.80
2022-09-04T21:17:33.961Z,21.70
2022-09-04T21:20:29.097Z,21.70
2022-09-04T21:23:07.472Z,21.70
2022-09-04T21:26:14.461Z,21.50
2022-09-04T21:29:11.560Z,21.50
2022-09-04T21:32:02.354Z,21.50
2022-09-04T21:34:56.497Z,21.50
2022-09-04T21:37:40.985Z,21.40
2022-09-04T21:40:50.281Z,21.30
2022-09-04T21:43:24.111Z,21.40
2022-09-04T21:46:32.964Z,21.40
2022-09-04T21:49:26.579Z,21.40
2022-09-04T21:52:11.987Z,21.40
2022-09-04T21:59:36.731Z,21.40
2022-09-04T22:02:37.028Z,21.40
2022-09-04T22:02:43.253Z,21.40
2022-09-04T22:04:13.492Z,21.40
2022-09-04T22:10:54.217Z,21.30
2022-09-04T22:13:35.445Z,21.30
2022-09-04T22:13:43.094Z,21.30
2022-09-04T22:15:49.203Z,21.30
2022-09-04T22:18:34.623Z,21.30
2022-09-04T22:21:04.228Z,21.20
2022-09-04T22:24:12.426Z,21.20
2022-09-04T22:27:00.919Z,21.20
2022-09-04T22:29:39.985Z,21.20
2022-09-04T22:32:20.521Z,21.20
2022-09-04T22:35:11.533Z,21.20
2022-09-04T22:38:07.533Z,21.20
2022-09-04T22:41:00.760Z,21.20
2022-09-04T22:43:29.475Z,21.20
2022-09-04T22:46:40.359Z,21.10
2022-09-04T22:49:40.764Z,21.10
2022-09-04T22:52:34.311Z,21.10
2022-09-04T22:55:40.030Z,20.90
2022-09-04T22:58:16.921Z,20.90
2022-09-04T23:01:05.033Z,20.90
2022-09-04T23:03:45.821Z,20.90
2022-09-04T23:09:54.056Z,20.90
2022-09-04T23:13:43.768Z,20.90
2022-09-04T23:13:58.565Z,20.80
2022-09-04T23:16:08.674Z,20.80
2022-09-04T23:26:31.103Z,20.80
2022-09-04T23:26:37.794Z,20.80
2022-09-04T23:26:49.395Z,20.80
2022-09-04T23:29:04.311Z,20.80
2022-09-04T23:32:06.821Z,20.70
2022-09-04T23:34:50.694Z,20.70
2022-09-04T23:38:03.036Z,20.70
2022-09-04T23:40:43.672Z,20.70
2022-09-04T23:43:30.612Z,20.70
2022-09-04T23:46:17.839Z,20.60
2022-09-04T23:49:06.858Z,20.70
2022-09-04T23:51:42.372Z,20.70
2022-09-04T23:54:28.140Z,20.70
2022-09-04T23:57:08.053Z,20.60
